sensor_id;sensor_type;location;lat;lon;timestamp;pressure;altitude;pressure_sealevel;temperature;humidity
64521;BME280;50896;46.714;17.322;2023-04-04T00:02:10;100849.81;;;2.76;50.66
64521;BME280;50896;46.714;17.322;2023-04-04T00:04:37;100854.66;;;2.82;50.32
64521;BME280;50896;46.714;17.322;2023-04-04T00:07:04;100850.88;;;2.73;51.51
64521;BME280;50896;46.714;17.322;2023-04-04T00:09:31;100844.56;;;2.76;50.53
64521;BME280;50896;46.714;17.322;2023-04-04T00:11:58;100843.63;;;2.77;52.21
64521;BME280;50896;46.714;17.322;2023-04-04T00:14:24;100833.53;;;2.71;53.44
64521;BME280;50896;46.714;17.322;2023-04-04T00:16:52;100848.94;;;2.63;53.19
64521;BME280;50896;46.714;17.322;2023-04-04T00:19:19;100851.13;;;2.56;52.55
64521;BME280;50896;46.714;17.322;2023-04-04T00:21:46;100847.66;;;2.55;53.91
64521;BME280;50896;46.714;17.322;2023-04-04T00:24:13;100853.53;;;2.59;53.77
64521;BME280;50896;46.714;17.322;2023-04-04T00:26:39;100848.28;;;2.59;54.94
64521;BME280;50896;46.714;17.322;2023-04-04T00:29:06;100842.41;;;2.55;53.15
64521;BME280;50896;46.714;17.322;2023-04-04T00:31:33;100831.47;;;2.49;52.93
64521;BME280;50896;46.714;17.322;2023-04-04T00:34:00;100841.66;;;2.53;54.57
64521;BME280;50896;46.714;17.322;2023-04-04T00:36:27;100849.75;;;2.50;53.59
64521;BME280;50896;46.714;17.322;2023-04-04T00:38:54;100853.97;;;2.53;55.73
64521;BME280;50896;46.714;17.322;2023-04-04T00:41:21;100850.06;;;2.46;53.91
64521;BME280;50896;46.714;17.322;2023-04-04T00:43:48;100851.53;;;2.50;53.80
64521;BME280;50896;46.714;17.322;2023-04-04T00:46:15;100854.53;;;2.44;53.72
64521;BME280;50896;46.714;17.322;2023-04-04T00:48:44;100853.84;;;2.27;53.21
64521;BME280;50896;46.714;17.322;2023-04-04T00:51:12;100855.47;;;2.15;52.07
64521;BME280;50896;46.714;17.322;2023-04-04T00:53:39;100849.19;;;2.18;53.49
64521;BME280;50896;46.714;17.322;2023-04-04T00:56:08;100865.28;;;2.26;53.37
64521;BME280;50896;46.714;17.322;2023-04-04T00:58:34;100858.00;;;2.17;52.61
64521;BME280;50896;46.714;17.322;2023-04-04T01:01:02;100854.59;;;2.29;53.34
64521;BME280;50896;46.714;17.322;2023-04-04T01:03:29;100853.00;;;2.27;53.28
64521;BME280;50896;46.714;17.322;2023-04-04T01:05:56;100854.38;;;2.32;52.90
64521;BME280;50896;46.714;17.322;2023-04-04T01:08:25;100863.59;;;2.25;53.92
64521;BME280;50896;46.714;17.322;2023-04-04T01:10:52;100861.53;;;2.30;52.58
64521;BME280;50896;46.714;17.322;2023-04-04T01:13:20;100851.88;;;2.31;51.85
64521;BME280;50896;46.714;17.322;2023-04-04T01:15:49;100847.44;;;2.31;52.65
64521;BME280;50896;46.714;17.322;2023-04-04T01:18:19;100850.69;;;2.22;53.07
64521;BME280;50896;46.714;17.322;2023-04-04T01:21:06;100847.22;;;2.07;51.79
64521;BME280;50896;46.714;17.322;2023-04-04T01:23:59;100846.00;;;2.13;53.22
64521;BME280;50896;46.714;17.322;2023-04-04T01:26:34;100848.22;;;2.19;53.43
64521;BME280;50896;46.714;17.322;2023-04-04T01:29:03;100848.81;;;2.10;53.48
64521;BME280;50896;46.714;17.322;2023-04-04T01:31:36;100842.81;;;2.08;52.83
64521;BME280;50896;46.714;17.322;2023-04-04T01:34:16;100834.69;;;2.12;52.65
64521;BME280;50896;46.714;17.322;2023-04-04T01:39:27;100820.53;;;2.00;55.54
64521;BME280;50896;46.714;17.322;2023-04-04T01:41:58;100819.50;;;2.03;54.83
64521;BME280;50896;46.714;17.322;2023-04-04T01:44:28;100809.59;;;1.94;55.36
64521;BME280;50896;46.714;17.322;2023-04-04T01:46:55;100798.47;;;1.90;55.90
64521;BME280;50896;46.714;17.322;2023-04-04T01:49:22;100791.94;;;1.83;56.92
64521;BME280;50896;46.714;17.322;2023-04-04T01:51:50;100781.88;;;1.90;57.28
64521;BME280;50896;46.714;17.322;2023-04-04T01:54:19;100770.38;;;1.92;58.09
64521;BME280;50896;46.714;17.322;2023-04-04T01:56:46;100761.88;;;1.88;56.79
64521;BME280;50896;46.714;17.322;2023-04-04T01:59:13;100744.56;;;1.71;57.13
64521;BME280;50896;46.714;17.322;2023-04-04T02:01:40;100736.69;;;1.71;56.03
64521;BME280;50896;46.714;17.322;2023-04-04T02:04:07;100720.25;;;1.69;59.85
64521;BME280;50896;46.714;17.322;2023-04-04T02:06:37;100741.31;;;1.68;56.16
64521;BME280;50896;46.714;17.322;2023-04-04T02:09:05;100742.13;;;1.68;58.57
64521;BME280;50896;46.714;17.322;2023-04-04T02:11:32;100704.19;;;1.47;58.71
64521;BME280;50896;46.714;17.322;2023-04-04T02:13:59;100737.75;;;1.69;60.02
64521;BME280;50896;46.714;17.322;2023-04-04T02:16:26;100730.16;;;1.64;57.60
64521;BME280;50896;46.714;17.322;2023-04-04T02:18:53;100735.69;;;1.60;58.60
64521;BME280;50896;46.714;17.322;2023-04-04T02:21:21;100738.78;;;1.66;60.33
64521;BME280;50896;46.714;17.322;2023-04-04T02:23:48;100748.91;;;1.58;58.45
64521;BME280;50896;46.714;17.322;2023-04-04T02:26:15;100736.63;;;1.59;58.31
64521;BME280;50896;46.714;17.322;2023-04-04T02:28:42;100745.72;;;1.53;57.97
64521;BME280;50896;46.714;17.322;2023-04-04T02:31:08;100735.03;;;1.56;58.58
64521;BME280;50896;46.714;17.322;2023-04-04T02:33:35;100742.63;;;1.46;58.65
64521;BME280;50896;46.714;17.322;2023-04-04T02:36:04;100748.25;;;1.54;59.08
64521;BME280;50896;46.714;17.322;2023-04-04T02:38:31;100739.00;;;1.49;57.44
64521;BME280;50896;46.714;17.322;2023-04-04T02:41:01;100747.88;;;1.46;58.05
64521;BME280;50896;46.714;17.322;2023-04-04T02:43:28;100751.91;;;1.52;57.58
64521;BME280;50896;46.714;17.322;2023-04-04T02:45:56;100744.53;;;1.44;59.03
64521;BME280;50896;46.714;17.322;2023-04-04T02:48:26;100749.88;;;1.43;58.71
64521;BME280;50896;46.714;17.322;2023-04-04T02:50:57;100755.19;;;1.41;57.21
64521;BME280;50896;46.714;17.322;2023-04-04T02:53:24;100750.13;;;1.38;58.26
64521;BME280;50896;46.714;17.322;2023-04-04T02:55:53;100746.00;;;1.34;59.88
64521;BME280;50896;46.714;17.322;2023-04-04T02:58:20;100739.75;;;1.36;57.68
64521;BME280;50896;46.714;17.322;2023-04-04T03:00:54;100752.13;;;1.34;60.03
64521;BME280;50896;46.714;17.322;2023-04-04T03:03:26;100752.31;;;1.31;57.54
64521;BME280;50896;46.714;17.322;2023-04-04T03:05:53;100754.16;;;1.44;59.53
64521;BME280;50896;46.714;17.322;2023-04-04T03:08:20;100718.06;;;1.20;58.74
64521;BME280;50896;46.714;17.322;2023-04-04T03:10:47;100747.59;;;1.36;58.53
64521;BME280;50896;46.714;17.322;2023-04-04T03:13:14;100758.66;;;1.42;60.09
64521;BME280;50896;46.714;17.322;2023-04-04T03:15:42;100754.72;;;1.34;57.58
64521;BME280;50896;46.714;17.322;2023-04-04T03:18:13;100742.75;;;1.30;58.60
64521;BME280;50896;46.714;17.322;2023-04-04T03:20:40;100744.06;;;1.38;60.52
64521;BME280;50896;46.714;17.322;2023-04-04T03:23:08;100759.22;;;1.32;60.84
64521;BME280;50896;46.714;17.322;2023-04-04T03:25:35;100771.84;;;1.40;59.67
64521;BME280;50896;46.714;17.322;2023-04-04T03:28:08;100771.66;;;1.43;58.97
64521;BME280;50896;46.714;17.322;2023-04-04T03:30:36;100770.53;;;1.33;60.04
64521;BME280;50896;46.714;17.322;2023-04-04T03:33:06;100777.53;;;1.32;58.94
64521;BME280;50896;46.714;17.322;2023-04-04T03:35:38;100763.72;;;1.30;58.83
64521;BME280;50896;46.714;17.322;2023-04-04T03:38:06;100785.06;;;1.39;59.85
64521;BME280;50896;46.714;17.322;2023-04-04T03:40:33;100777.28;;;1.37;61.09
64521;BME280;50896;46.714;17.322;2023-04-04T03:43:07;100788.97;;;1.46;60.14
64521;BME280;50896;46.714;17.322;2023-04-04T03:45:34;100785.22;;;1.50;62.47
64521;BME280;50896;46.714;17.322;2023-04-04T03:48:04;100794.59;;;1.40;59.55
64521;BME280;50896;46.714;17.322;2023-04-04T03:50:31;100763.03;;;1.27;60.98
64521;BME280;50896;46.714;17.322;2023-04-04T03:52:58;100783.16;;;1.41;61.28
64521;BME280;50896;46.714;17.322;2023-04-04T03:55:25;100772.78;;;1.39;62.02
64521;BME280;50896;46.714;17.322;2023-04-04T03:57:57;100767.84;;;1.34;63.57
64521;BME280;50896;46.714;17.322;2023-04-04T04:00:25;100766.22;;;1.32;60.96
64521;BME280;50896;46.714;17.322;2023-04-04T04:02:52;100773.06;;;1.34;60.05
64521;BME280;50896;46.714;17.322;2023-04-04T04:05:19;100787.94;;;1.34;62.08
64521;BME280;50896;46.714;17.322;2023-04-04T04:07:46;100768.47;;;1.24;61.66
64521;BME280;50896;46.714;17.322;2023-04-04T04:10:12;100766.91;;;1.35;63.50
64521;BME280;50896;46.714;17.322;2023-04-04T04:12:39;100749.94;;;1.27;61.27
64521;BME280;50896;46.714;17.322;2023-04-04T04:15:07;100756.31;;;1.23;65.82
64521;BME280;50896;46.714;17.322;2023-04-04T04:17:39;100749.56;;;1.18;60.15
64521;BME280;50896;46.714;17.322;2023-04-04T04:20:09;100753.59;;;1.10;60.01
64521;BME280;50896;46.714;17.322;2023-04-04T04:22:45;100753.03;;;1.05;63.28
64521;BME280;50896;46.714;17.322;2023-04-04T04:25:14;100739.19;;;1.02;63.53
64521;BME280;50896;46.714;17.322;2023-04-04T04:27:46;100749.88;;;0.99;62.34
64521;BME280;50896;46.714;17.322;2023-04-04T04:30:13;100726.84;;;1.05;64.32
64521;BME280;50896;46.714;17.322;2023-04-04T04:32:43;100743.50;;;1.04;63.98
64521;BME280;50896;46.714;17.322;2023-04-04T04:35:11;100725.91;;;1.06;62.88
64521;BME280;50896;46.714;17.322;2023-04-04T04:37:39;100739.47;;;0.98;62.25
64521;BME280;50896;46.714;17.322;2023-04-04T04:40:07;100737.25;;;1.06;65.43
64521;BME280;50896;46.714;17.322;2023-04-04T04:42:44;100751.75;;;1.12;65.07
64521;BME280;50896;46.714;17.322;2023-04-04T04:45:17;100703.75;;;0.82;66.49
64521;BME280;50896;46.714;17.322;2023-04-04T04:47:50;100728.53;;;1.06;63.90
64521;BME280;50896;46.714;17.322;2023-04-04T04:50:19;100723.97;;;1.09;63.42
64521;BME280;50896;46.714;17.322;2023-04-04T04:52:51;100725.63;;;1.10;65.08
64521;BME280;50896;46.714;17.322;2023-04-04T04:55:18;100724.59;;;1.13;66.30
64521;BME280;50896;46.714;17.322;2023-04-04T04:57:58;100723.19;;;1.07;64.30
64521;BME280;50896;46.714;17.322;2023-04-04T05:00:27;100720.03;;;1.16;67.61
64521;BME280;50896;46.714;17.322;2023-04-04T05:02:54;100715.72;;;1.01;66.68
64521;BME280;50896;46.714;17.322;2023-04-04T05:05:35;100723.97;;;1.09;64.57
64521;BME280;50896;46.714;17.322;2023-04-04T05:08:06;100715.09;;;1.12;65.25
64521;BME280;50896;46.714;17.322;2023-04-04T05:10:37;100712.53;;;1.10;66.16
64521;BME280;50896;46.714;17.322;2023-04-04T05:13:05;100730.41;;;1.18;66.43
64521;BME280;50896;46.714;17.322;2023-04-04T05:15:39;100720.69;;;1.20;66.83
64521;BME280;50896;46.714;17.322;2023-04-04T05:18:07;100718.91;;;1.06;67.75
64521;BME280;50896;46.714;17.322;2023-04-04T05:20:34;100720.03;;;1.16;66.17
64521;BME280;50896;46.714;17.322;2023-04-04T05:23:03;100730.97;;;1.23;68.16
64521;BME280;50896;46.714;17.322;2023-04-04T05:25:35;100714.59;;;1.19;66.90
64521;BME280;50896;46.714;17.322;2023-04-04T05:28:02;100693.56;;;1.07;65.66
64521;BME280;50896;46.714;17.322;2023-04-04T05:30:30;100744.25;;;1.20;66.29
64521;BME280;50896;46.714;17.322;2023-04-04T05:33:18;100735.44;;;1.21;67.19
64521;BME280;50896;46.714;17.322;2023-04-04T05:35:55;100740.03;;;1.32;66.21
64521;BME280;50896;46.714;17.322;2023-04-04T05:38:22;100745.66;;;1.40;65.00
64521;BME280;50896;46.714;17.322;2023-04-04T05:40:54;100749.50;;;1.34;62.46
64521;BME280;50896;46.714;17.322;2023-04-04T05:43:22;100741.03;;;1.44;63.68
64521;BME280;50896;46.714;17.322;2023-04-04T05:46:00;100761.75;;;1.48;63.57
64521;BME280;50896;46.714;17.322;2023-04-04T05:48:33;100756.41;;;1.50;63.02
64521;BME280;50896;46.714;17.322;2023-04-04T05:51:00;100748.25;;;1.54;62.79
64521;BME280;50896;46.714;17.322;2023-04-04T05:53:38;100736.09;;;1.53;64.06
64521;BME280;50896;46.714;17.322;2023-04-04T05:56:05;100746.09;;;1.61;66.03
64521;BME280;50896;46.714;17.322;2023-04-04T05:58:33;100753.47;;;1.69;63.63
64521;BME280;50896;46.714;17.322;2023-04-04T06:01:07;100729.53;;;1.61;63.39
64521;BME280;50896;46.714;17.322;2023-04-04T06:03:35;100749.72;;;1.73;61.55
64521;BME280;50896;46.714;17.322;2023-04-04T06:06:06;100758.78;;;1.82;65.95
64521;BME280;50896;46.714;17.322;2023-04-04T06:08:33;100739.63;;;1.67;61.67
64521;BME280;50896;46.714;17.322;2023-04-04T06:11:18;100751.72;;;1.97;63.10
64521;BME280;50896;46.714;17.322;2023-04-04T06:13:45;100744.50;;;2.00;63.13
64521;BME280;50896;46.714;17.322;2023-04-04T06:16:15;100754.84;;;2.16;62.85
64521;BME280;50896;46.714;17.322;2023-04-04T06:18:42;100750.88;;;2.24;62.03
64521;BME280;50896;46.714;17.322;2023-04-04T06:21:09;100752.22;;;2.16;59.99
64521;BME280;50896;46.714;17.322;2023-04-04T06:23:39;100749.16;;;2.10;59.23
64521;BME280;50896;46.714;17.322;2023-04-04T06:26:06;100750.97;;;2.22;60.27
64521;BME280;50896;46.714;17.322;2023-04-04T06:28:34;100756.41;;;2.19;60.54
64521;BME280;50896;46.714;17.322;2023-04-04T06:31:04;100759.50;;;2.38;60.53
64521;BME280;50896;46.714;17.322;2023-04-04T06:33:32;100766.34;;;2.41;59.46
64521;BME280;50896;46.714;17.322;2023-04-04T06:35:59;100754.81;;;2.44;60.92
64521;BME280;50896;46.714;17.322;2023-04-04T06:38:26;100760.72;;;2.47;60.96
64521;BME280;50896;46.714;17.322;2023-04-04T06:40:57;100740.88;;;2.56;61.39
64521;BME280;50896;46.714;17.322;2023-04-04T06:43:24;100739.63;;;2.62;60.63
64521;BME280;50896;46.714;17.322;2023-04-04T06:45:51;100743.59;;;2.42;58.46
64521;BME280;50896;46.714;17.322;2023-04-04T06:48:18;100734.88;;;2.54;61.11
64521;BME280;50896;46.714;17.322;2023-04-04T06:50:46;100753.50;;;2.64;61.30
64521;BME280;50896;46.714;17.322;2023-04-04T06:53:15;100732.56;;;2.62;61.19
64521;BME280;50896;46.714;17.322;2023-04-04T06:55:42;100744.03;;;2.61;59.17
64521;BME280;50896;46.714;17.322;2023-04-04T06:58:09;100744.56;;;2.66;60.33
64521;BME280;50896;46.714;17.322;2023-04-04T07:00:36;100739.84;;;2.71;58.67
64521;BME280;50896;46.714;17.322;2023-04-04T07:03:03;100734.50;;;2.86;62.45
64521;BME280;50896;46.714;17.322;2023-04-04T07:05:30;100740.88;;;2.56;61.01
64521;BME280;50896;46.714;17.322;2023-04-04T07:07:57;100751.50;;;2.67;60.21
64521;BME280;50896;46.714;17.322;2023-04-04T07:10:24;100736.50;;;2.69;61.35
64521;BME280;50896;46.714;17.322;2023-04-04T07:12:51;100738.81;;;2.74;59.86
64521;BME280;50896;46.714;17.322;2023-04-04T07:15:18;100732.81;;;2.85;58.76
64521;BME280;50896;46.714;17.322;2023-04-04T07:17:45;100736.19;;;2.87;58.95
64521;BME280;50896;46.714;17.322;2023-04-04T07:20:12;100741.75;;;2.82;56.80
64521;BME280;50896;46.714;17.322;2023-04-04T07:22:40;100731.13;;;2.84;57.81
64521;BME280;50896;46.714;17.322;2023-04-04T07:25:08;100740.16;;;2.80;58.29
64521;BME280;50896;46.714;17.322;2023-04-04T07:27:35;100754.88;;;2.95;58.30
64521;BME280;50896;46.714;17.322;2023-04-04T07:30:03;100736.59;;;2.94;57.42
64521;BME280;50896;46.714;17.322;2023-04-04T07:32:30;100749.09;;;3.16;57.52
64521;BME280;50896;46.714;17.322;2023-04-04T07:34:57;100745.50;;;3.42;58.55
64521;BME280;50896;46.714;17.322;2023-04-04T07:37:23;100751.69;;;3.41;59.32
64521;BME280;50896;46.714;17.322;2023-04-04T07:39:52;100759.47;;;3.56;60.15
64521;BME280;50896;46.714;17.322;2023-04-04T07:42:18;100766.28;;;3.58;55.58
64521;BME280;50896;46.714;17.322;2023-04-04T07:44:49;100741.78;;;3.58;56.84
64521;BME280;50896;46.714;17.322;2023-04-04T07:47:18;100754.63;;;3.50;55.79
64521;BME280;50896;46.714;17.322;2023-04-04T07:49:46;100759.34;;;3.45;55.79
64521;BME280;50896;46.714;17.322;2023-04-04T07:52:12;100763.78;;;3.44;57.14
64521;BME280;50896;46.714;17.322;2023-04-04T07:54:39;100776.53;;;3.50;56.44
64521;BME280;50896;46.714;17.322;2023-04-04T07:57:06;100773.47;;;3.31;54.28
64521;BME280;50896;46.714;17.322;2023-04-04T07:59:35;100738.56;;;3.41;55.57
64521;BME280;50896;46.714;17.322;2023-04-04T08:02:03;100756.25;;;3.27;53.89
64521;BME280;50896;46.714;17.322;2023-04-04T08:04:30;100737.56;;;3.55;56.29
64521;BME280;50896;46.714;17.322;2023-04-04T08:06:56;100759.31;;;3.70;58.13
64521;BME280;50896;46.714;17.322;2023-04-04T08:09:23;100759.44;;;3.69;56.79
64521;BME280;50896;46.714;17.322;2023-04-04T08:11:50;100755.00;;;3.69;57.69
64521;BME280;50896;46.714;17.322;2023-04-04T08:14:18;100748.28;;;3.65;56.98
64521;BME280;50896;46.714;17.322;2023-04-04T08:16:44;100748.72;;;3.59;55.17
64521;BME280;50896;46.714;17.322;2023-04-04T08:19:11;100751.84;;;3.64;56.93
64521;BME280;50896;46.714;17.322;2023-04-04T08:21:38;100741.72;;;3.47;56.70
64521;BME280;50896;46.714;17.322;2023-04-04T08:24:05;100736.56;;;3.45;57.21
64521;BME280;50896;46.714;17.322;2023-04-04T08:26:33;100731.31;;;3.45;56.26
64521;BME280;50896;46.714;17.322;2023-04-04T08:28:59;100739.59;;;3.52;55.70
64521;BME280;50896;46.714;17.322;2023-04-04T08:31:27;100732.09;;;3.58;54.97
64521;BME280;50896;46.714;17.322;2023-04-04T08:33:55;100723.44;;;3.69;54.93
64521;BME280;50896;46.714;17.322;2023-04-04T08:36:22;100715.63;;;3.81;54.49
64521;BME280;50896;46.714;17.322;2023-04-04T08:38:49;100724.81;;;3.99;55.18
64521;BME280;50896;46.714;17.322;2023-04-04T08:41:16;100726.81;;;4.20;55.04
64521;BME280;50896;46.714;17.322;2023-04-04T08:43:44;100720.88;;;4.29;52.47
64521;BME280;50896;46.714;17.322;2023-04-04T08:46:14;100713.34;;;4.24;54.30
64521;BME280;50896;46.714;17.322;2023-04-04T08:48:43;100715.34;;;4.21;55.69
64521;BME280;50896;46.714;17.322;2023-04-04T08:51:12;100717.63;;;4.25;53.88
64521;BME280;50896;46.714;17.322;2023-04-04T08:53:39;100726.59;;;4.23;53.03
64521;BME280;50896;46.714;17.322;2023-04-04T08:56:07;100725.59;;;4.37;52.35
64521;BME280;50896;46.714;17.322;2023-04-04T08:58:34;100720.41;;;4.35;51.40
64521;BME280;50896;46.714;17.322;2023-04-04T09:01:05;100720.72;;;4.55;53.82
64521;BME280;50896;46.714;17.322;2023-04-04T09:03:33;100717.31;;;4.30;52.66
64521;BME280;50896;46.714;17.322;2023-04-04T09:06:03;100720.06;;;4.28;52.34
64521;BME280;50896;46.714;17.322;2023-04-04T09:08:30;100718.88;;;4.33;50.32
64521;BME280;50896;46.714;17.322;2023-04-04T09:11:01;100712.19;;;4.40;51.96
64521;BME280;50896;46.714;17.322;2023-04-04T09:13:28;100729.50;;;4.31;52.43
64521;BME280;50896;46.714;17.322;2023-04-04T09:15:56;100731.97;;;4.57;52.43
64521;BME280;50896;46.714;17.322;2023-04-04T09:18:24;100724.09;;;4.57;53.75
64521;BME280;50896;46.714;17.322;2023-04-04T09:20:51;100722.38;;;4.56;53.44
64521;BME280;50896;46.714;17.322;2023-04-04T09:23:19;100724.28;;;4.42;53.59
64521;BME280;50896;46.714;17.322;2023-04-04T09:25:52;100717.34;;;4.41;54.74
64521;BME280;50896;46.714;17.322;2023-04-04T09:28:22;100723.78;;;4.37;52.99
64521;BME280;50896;46.714;17.322;2023-04-04T09:30:50;100722.09;;;4.36;50.52
64521;BME280;50896;46.714;17.322;2023-04-04T09:33:19;100711.47;;;4.49;52.27
64521;BME280;50896;46.714;17.322;2023-04-04T09:36:03;100716.19;;;4.57;52.56
64521;BME280;50896;46.714;17.322;2023-04-04T09:38:35;100717.25;;;4.66;53.60
64521;BME280;50896;46.714;17.322;2023-04-04T09:41:05;100719.47;;;4.83;53.74
64521;BME280;50896;46.714;17.322;2023-04-04T09:43:35;100716.59;;;4.86;51.67
64521;BME280;50896;46.714;17.322;2023-04-04T09:46:04;100711.09;;;4.89;51.63
64521;BME280;50896;46.714;17.322;2023-04-04T09:48:32;100722.72;;;5.09;52.66
64521;BME280;50896;46.714;17.322;2023-04-04T09:51:03;100724.63;;;5.07;50.38
64521;BME280;50896;46.714;17.322;2023-04-04T09:53:33;100718.75;;;4.92;50.44
64521;BME280;50896;46.714;17.322;2023-04-04T09:56:01;100707.13;;;4.95;51.82
64521;BME280;50896;46.714;17.322;2023-04-04T09:58:29;100709.06;;;4.93;52.31
64521;BME280;50896;46.714;17.322;2023-04-04T10:00:59;100726.06;;;5.00;51.01
64521;BME280;50896;46.714;17.322;2023-04-04T10:03:27;100704.75;;;4.92;49.33
64521;BME280;50896;46.714;17.322;2023-04-04T10:05:58;100719.97;;;5.00;52.62
64521;BME280;50896;46.714;17.322;2023-04-04T10:08:27;100715.63;;;4.76;51.67
64521;BME280;50896;46.714;17.322;2023-04-04T10:11:02;100710.63;;;4.37;51.67
64521;BME280;50896;46.714;17.322;2023-04-04T10:13:37;100708.53;;;4.30;51.50
64521;BME280;50896;46.714;17.322;2023-04-04T10:16:07;100715.41;;;4.43;54.23
64521;BME280;50896;46.714;17.322;2023-04-04T10:18:35;100715.41;;;4.43;53.78
64521;BME280;50896;46.714;17.322;2023-04-04T10:21:04;100704.38;;;4.27;55.30
64521;BME280;50896;46.714;17.322;2023-04-04T10:23:35;100705.31;;;4.26;54.04
64521;BME280;50896;46.714;17.322;2023-04-04T10:26:02;100716.00;;;4.36;51.09
64521;BME280;50896;46.714;17.322;2023-04-04T10:28:29;100697.22;;;4.40;52.79
64521;BME280;50896;46.714;17.322;2023-04-04T10:34:19;100721.94;;;4.26;52.06
64521;BME280;50896;46.714;17.322;2023-04-04T10:36:49;100712.31;;;4.38;50.79
64521;BME280;50896;46.714;17.322;2023-04-04T10:39:20;100683.13;;;4.53;52.61
64521;BME280;50896;46.714;17.322;2023-04-04T10:41:51;100716.44;;;4.65;50.80
64521;BME280;50896;46.714;17.322;2023-04-04T10:44:28;100717.28;;;4.77;50.02
64521;BME280;50896;46.714;17.322;2023-04-04T10:47:08;100700.28;;;4.70;52.66
64521;BME280;50896;46.714;17.322;2023-04-04T10:49:43;100713.94;;;4.64;53.18
64521;BME280;50896;46.714;17.322;2023-04-04T10:52:12;100709.00;;;4.59;51.59
64521;BME280;50896;46.714;17.322;2023-04-04T10:54:40;100702.78;;;4.71;51.43
64521;BME280;50896;46.714;17.322;2023-04-04T10:57:07;100703.25;;;4.54;50.25
64521;BME280;50896;46.714;17.322;2023-04-04T10:59:54;100702.78;;;4.60;51.63
64521;BME280;50896;46.714;17.322;2023-04-04T11:05:19;100709.06;;;4.93;51.93
64521;BME280;50896;46.714;17.322;2023-04-04T11:10:36;100692.25;;;4.60;52.75
64521;BME280;50896;46.714;17.322;2023-04-04T11:13:12;100698.75;;;4.90;51.78
64521;BME280;50896;46.714;17.322;2023-04-04T11:18:11;100701.66;;;5.09;51.05
64521;BME280;50896;46.714;17.322;2023-04-04T11:21:02;100690.25;;;5.20;48.96
64521;BME280;50896;46.714;17.322;2023-04-04T11:24:12;100687.50;;;5.33;49.71
64521;BME280;50896;46.714;17.322;2023-04-04T11:26:40;100683.66;;;5.48;53.47
64521;BME280;50896;46.714;17.322;2023-04-04T11:29:08;100688.03;;;5.71;48.89
64521;BME280;50896;46.714;17.322;2023-04-04T11:31:38;100686.13;;;5.61;48.62
64521;BME280;50896;46.714;17.322;2023-04-04T11:39:46;100678.75;;;5.88;50.32
64521;BME280;50896;46.714;17.322;2023-04-04T11:41:55;100683.88;;;5.57;49.61
64521;BME280;50896;46.714;17.322;2023-04-04T11:44:26;100676.84;;;5.01;49.07
64521;BME280;50896;46.714;17.322;2023-04-04T11:49:34;100683.03;;;4.88;49.21
64521;BME280;50896;46.714;17.322;2023-04-04T11:52:05;100686.28;;;4.92;51.85
64521;BME280;50896;46.714;17.322;2023-04-04T11:54:32;100685.19;;;5.40;54.05
64521;BME280;50896;46.714;17.322;2023-04-04T11:56:59;100686.94;;;5.62;50.86
64521;BME280;50896;46.714;17.322;2023-04-04T11:59:28;100681.22;;;5.57;49.25
64521;BME280;50896;46.714;17.322;2023-04-04T12:01:56;100687.00;;;5.39;48.51
64521;BME280;50896;46.714;17.322;2023-04-04T12:04:24;100682.69;;;5.27;50.21
64521;BME280;50896;46.714;17.322;2023-04-04T12:06:53;100684.59;;;5.47;51.39
64521;BME280;50896;46.714;17.322;2023-04-04T12:09:22;100681.63;;;5.29;50.85
64521;BME280;50896;46.714;17.322;2023-04-04T12:11:51;100680.91;;;5.05;50.05
64521;BME280;50896;46.714;17.322;2023-04-04T12:14:18;100678.03;;;5.08;52.48
64521;BME280;50896;46.714;17.322;2023-04-04T12:16:47;100656.94;;;4.96;49.28
64521;BME280;50896;46.714;17.322;2023-04-04T12:19:16;100682.72;;;5.16;51.01
64521;BME280;50896;46.714;17.322;2023-04-04T12:21:47;100680.56;;;5.09;49.21
64521;BME280;50896;46.714;17.322;2023-04-04T12:24:14;100675.03;;;5.24;49.63
64521;BME280;50896;46.714;17.322;2023-04-04T12:26:43;100675.50;;;5.40;51.12
64521;BME280;50896;46.714;17.322;2023-04-04T12:29:12;100672.84;;;5.52;51.47
64521;BME280;50896;46.714;17.322;2023-04-04T12:31:41;100675.94;;;5.45;49.42
64521;BME280;50896;46.714;17.322;2023-04-04T12:34:20;100671.06;;;5.41;49.23
64521;BME280;50896;46.714;17.322;2023-04-04T12:36:48;100664.00;;;5.30;49.94
64521;BME280;50896;46.714;17.322;2023-04-04T12:39:15;100667.72;;;5.16;49.36
64521;BME280;50896;46.714;17.322;2023-04-04T12:41:59;100656.72;;;5.22;48.02
64521;BME280;50896;46.714;17.322;2023-04-04T12:44:30;100633.09;;;5.21;49.92
64521;BME280;50896;46.714;17.322;2023-04-04T12:46:59;100659.09;;;5.25;47.93
64521;BME280;50896;46.714;17.322;2023-04-04T12:49:28;100647.69;;;5.36;49.78
64521;BME280;50896;46.714;17.322;2023-04-04T12:51:56;100638.94;;;5.47;49.89
64521;BME280;50896;46.714;17.322;2023-04-04T12:54:30;100641.09;;;5.42;48.91
64521;BME280;50896;46.714;17.322;2023-04-04T12:56:57;100632.72;;;5.37;47.39
64521;BME280;50896;46.714;17.322;2023-04-04T12:59:31;100632.09;;;5.44;47.91
64521;BME280;50896;46.714;17.322;2023-04-04T13:02:07;100640.94;;;5.55;48.01
64521;BME280;50896;46.714;17.322;2023-04-04T13:04:34;100643.94;;;5.61;48.81
64521;BME280;50896;46.714;17.322;2023-04-04T13:07:01;100653.75;;;5.59;48.97
64521;BME280;50896;46.714;17.322;2023-04-04T13:09:28;100655.16;;;5.63;47.75
64521;BME280;50896;46.714;17.322;2023-04-04T13:15:00;100646.81;;;5.58;45.97
64521;BME280;50896;46.714;17.322;2023-04-04T13:17:44;100650.28;;;5.59;46.74
64521;BME280;50896;46.714;17.322;2023-04-04T13:20:13;100649.53;;;5.68;47.05
64521;BME280;50896;46.714;17.322;2023-04-04T13:22:40;100635.16;;;5.61;47.62
64521;BME280;50896;46.714;17.322;2023-04-04T13:25:09;100638.78;;;5.60;47.46
64521;BME280;50896;46.714;17.322;2023-04-04T13:27:37;100628.47;;;5.57;46.80